Eco Spitfire — 2HEA4 — position and weather

sailwx.info

Track history (hours):
 
Tides and Currents Weather Stations Pressure Air Temp Water Temp Dewpoint Dewpoint Depression Visibility Wind Speed Wind Dir Waves Ship Positions

Eco Spitfire

Last reported at 2018-Mar-05 00:04 UTC. Time now 2018-Jun-25 14:16 UTC.
Position N 01°15' E 103°59'.
Warning: this ship's position is months out of date.

Length 180 m; draft 9.8 m.

Type: Ship. MMSI: 235102885.

Date/timePositionNaut miles runAvg speedWind from/ knotsBaromVisibWave heightAir tempDewpointWater temp
2018-Mar-05 00:04N 01°15' E 103°59'2 8.6
2018-Mar-04 23:53N 01°14' E 103°58'3 7.0
2018-Mar-04 23:30N 01°16' E 103°56'2 4.1
2018-Mar-04 23:00N 01°16' E 103°54'0 0.1
2018-Mar-04 22:20N 01°16' E 103°54'0 0.0
2018-Mar-04 21:59N 01°16' E 103°54'0 0.0
2018-Mar-04 21:27N 01°16' E 103°54'0 0.0
2018-Mar-04 21:00N 01°16' E 103°54'0 0.1
2018-Mar-04 20:30N 01°16' E 103°54'0 0.0
2018-Mar-04 20:00N 01°16' E 103°54'0 0.0
2018-Mar-04 19:30N 01°16' E 103°54'0 0.0
2018-Mar-04 18:59N 01°16' E 103°54'0 0.0
2018-Mar-04 18:29N 01°16' E 103°54'0 0.0
2018-Mar-04 17:42N 01°16' E 103°54'0 0.2
2018-Mar-04 17:24N 01°16' E 103°54'0 0.0
2018-Mar-04 16:33N 01°16' E 103°54'0 0.0
2018-Mar-04 16:27N 01°16' E 103°54'0 0.0
2018-Mar-04 15:54N 01°16' E 103°54'0 0.0
2018-Mar-04 15:30N 01°16' E 103°54'0 0.0
2018-Mar-04 15:01N 01°16' E 103°54'0 0.0
2018-Mar-04 14:29N 01°16' E 103°54'0 0.0
2018-Mar-04 13:58N 01°16' E 103°54'0 0.0
2018-Mar-04 13:31N 01°16' E 103°54'0 0.0
2018-Mar-04 13:00N 01°16' E 103°54'0 0.0
2018-Mar-04 12:27N 01°16' E 103°54'0 0.1
2018-Mar-04 11:58N 01°16' E 103°54'1 2.4
2018-Mar-04 11:30N 01°15' E 103°54'2 4.2
2018-Mar-04 11:00N 01°13' E 103°55'1 1.9
2018-Mar-04 10:31N 01°12' E 103°54'4 7.7
2018-Mar-04 10:00N 01°11' E 103°51'4 8.1
2018-Mar-04 09:30N 01°09' E 103°47'4 7.4
2018-Mar-04 09:01N 01°06' E 103°45'3 6.4
2018-Mar-04 08:30N 01°04' E 103°42'4 8.4
2018-Mar-04 07:59N 01°03' E 103°38'510.7
2018-Mar-04 07:30N 01°06' E 103°33'612.5
2018-Mar-04 07:00N 01°10' E 103°28'713.2
2018-Mar-04 06:29N 01°13' E 103°22'713.3
2018-Mar-04 05:56N 01°18' E 103°17'  
Track history (hours):
 
Tides and Currents Weather Stations Pressure Air Temp Water Temp Dewpoint Dewpoint Depression Visibility Wind Speed Wind Dir Waves Ship Positions

Eco Spitfire

Last reported at 2018-Mar-05 00:04 UTC. Time now 2018-Jun-25 14:16 UTC.
Position N 01°15' E 103°59'.
Warning: this ship's position is months out of date.

Length 180 m; draft 9.8 m.

Type: Ship. MMSI: 235102885.

Date/timePositionNaut miles runAvg speedWind from/ knotsBaromVisibWave heightAir tempDewpointWater temp
2018-Mar-05 00:04N 01°15' E 103°59'2 8.6
2018-Mar-04 23:53N 01°14' E 103°58'3 7.0
2018-Mar-04 23:30N 01°16' E 103°56'2 4.1
2018-Mar-04 23:00N 01°16' E 103°54'0 0.1
2018-Mar-04 22:20N 01°16' E 103°54'0 0.0
2018-Mar-04 21:59N 01°16' E 103°54'0 0.0
2018-Mar-04 21:27N 01°16' E 103°54'0 0.0
2018-Mar-04 21:00N 01°16' E 103°54'0 0.1
2018-Mar-04 20:30N 01°16' E 103°54'0 0.0
2018-Mar-04 20:00N 01°16' E 103°54'0 0.0
2018-Mar-04 19:30N 01°16' E 103°54'0 0.0
2018-Mar-04 18:59N 01°16' E 103°54'0 0.0
2018-Mar-04 18:29N 01°16' E 103°54'0 0.0
2018-Mar-04 17:42N 01°16' E 103°54'0 0.2
2018-Mar-04 17:24N 01°16' E 103°54'0 0.0
2018-Mar-04 16:33N 01°16' E 103°54'0 0.0
2018-Mar-04 16:27N 01°16' E 103°54'0 0.0
2018-Mar-04 15:54N 01°16' E 103°54'0 0.0
2018-Mar-04 15:30N 01°16' E 103°54'0 0.0
2018-Mar-04 15:01N 01°16' E 103°54'0 0.0
2018-Mar-04 14:29N 01°16' E 103°54'0 0.0
2018-Mar-04 13:58N 01°16' E 103°54'0 0.0
2018-Mar-04 13:31N 01°16' E 103°54'0 0.0
2018-Mar-04 13:00N 01°16' E 103°54'0 0.0
2018-Mar-04 12:27N 01°16' E 103°54'0 0.1
2018-Mar-04 11:58N 01°16' E 103°54'1 2.4
2018-Mar-04 11:30N 01°15' E 103°54'2 4.2
2018-Mar-04 11:00N 01°13' E 103°55'1 1.9
2018-Mar-04 10:31N 01°12' E 103°54'4 7.7
2018-Mar-04 10:00N 01°11' E 103°51'4 8.1
2018-Mar-04 09:30N 01°09' E 103°47'4 7.4
2018-Mar-04 09:01N 01°06' E 103°45'3 6.4
2018-Mar-04 08:30N 01°04' E 103°42'4 8.4
2018-Mar-04 07:59N 01°03' E 103°38'510.7
2018-Mar-04 07:30N 01°06' E 103°33'612.5
2018-Mar-04 07:00N 01°10' E 103°28'713.2
2018-Mar-04 06:29N 01°13' E 103°22'713.3
2018-Mar-04 05:56N 01°18' E 103°17'  

Dump ship's entire track history